Arlington, Washington
Current Conditions -  °F | °C
As of 5:35 PM on Monday 20 Oct 2014 (Local Time) from KAWO Reporting Station
Overcast Overcast  
Wind Chill: 61°   Ceiling: 7500
Heat Index: 61°   Visibility: 10mi
Dew Point: 52°   Wind: 9mph
Humidity: 72%   Direction: 140°SE
Pressure: 29.75"   Gusts: NA
Location:  48.2°N, 122.13°W
Report Text: KAWO 210035Z AUTO 14008KT 10SM SCT030 BKN075 OVC090 16/11 A2975 RMK AO1
Loading
Personal Weather Stations






























Interactive Weather Map New forecast layout! Learn more

10-Day Weather Forecast

Advertisements
Track Severe Weather on mobile